sensor_id;sensor_type;location;lat;lon;timestamp;P1;durP1;ratioP1;P2;durP2;ratioP2
16673;SDS011;8450;52.654;10.326;2022-09-24T06:18:35;10.30;;;9.40;;
16673;SDS011;8450;52.654;10.326;2022-09-24T06:21:04;10.30;;;9.50;;
16673;SDS011;8450;52.654;10.326;2022-09-24T06:23:40;10.63;;;9.73;;
16673;SDS011;8450;52.654;10.326;2022-09-24T06:26:07;10.70;;;9.80;;
16673;SDS011;8450;52.654;10.326;2022-09-24T06:28:35;9.93;;;9.13;;
16673;SDS011;8450;52.654;10.326;2022-09-24T06:31:02;10.00;;;9.10;;
16673;SDS011;8450;52.654;10.326;2022-09-24T06:33:28;9.57;;;8.77;;
16673;SDS011;8450;52.654;10.326;2022-09-24T06:35:57;10.30;;;9.40;;
16673;SDS011;8450;52.654;10.326;2022-09-24T06:38:24;10.57;;;9.67;;
16673;SDS011;8450;52.654;10.326;2022-09-24T06:40:50;10.27;;;9.27;;
16673;SDS011;8450;52.654;10.326;2022-09-24T06:43:16;9.97;;;8.97;;
16673;SDS011;8450;52.654;10.326;2022-09-24T06:45:42;10.43;;;9.60;;
16673;SDS011;8450;52.654;10.326;2022-09-24T06:48:09;10.07;;;9.27;;
16673;SDS011;8450;52.654;10.326;2022-09-24T06:50:38;11.13;;;10.10;;
16673;SDS011;8450;52.654;10.326;2022-09-24T06:53:07;10.43;;;9.53;;
16673;SDS011;8450;52.654;10.326;2022-09-24T06:55:34;10.97;;;9.97;;
16673;SDS011;8450;52.654;10.326;2022-09-24T07:00:36;10.47;;;9.47;;
16673;SDS011;8450;52.654;10.326;2022-09-24T07:03:03;10.53;;;9.63;;
16673;SDS011;8450;52.654;10.326;2022-09-24T07:05:29;10.20;;;9.40;;
16673;SDS011;8450;52.654;10.326;2022-09-24T07:07:54;10.37;;;9.47;;
16673;SDS011;8450;52.654;10.326;2022-09-24T07:10:20;11.20;;;10.30;;
16673;SDS011;8450;52.654;10.326;2022-09-24T07:12:48;10.90;;;9.90;;
16673;SDS011;8450;52.654;10.326;2022-09-24T07:15:14;11.97;;;10.87;;
16673;SDS011;8450;52.654;10.326;2022-09-24T07:17:39;11.93;;;10.93;;
16673;SDS011;8450;52.654;10.326;2022-09-24T07:20:05;10.77;;;9.87;;
16673;SDS011;8450;52.654;10.326;2022-09-24T07:22:31;10.73;;;9.83;;
16673;SDS011;8450;52.654;10.326;2022-09-24T07:25:01;11.60;;;10.53;;
16673;SDS011;8450;52.654;10.326;2022-09-24T07:27:27;11.33;;;10.33;;
16673;SDS011;8450;52.654;10.326;2022-09-24T07:29:52;10.73;;;9.83;;
16673;SDS011;8450;52.654;10.326;2022-09-24T07:32:18;10.30;;;9.50;;
16673;SDS011;8450;52.654;10.326;2022-09-24T07:34:44;10.97;;;10.07;;
16673;SDS011;8450;52.654;10.326;2022-09-24T07:37:10;10.60;;;9.70;;
16673;SDS011;8450;52.654;10.326;2022-09-24T07:39:36;11.13;;;10.23;;
16673;SDS011;8450;52.654;10.326;2022-09-24T07:42:02;11.47;;;10.53;;
16673;SDS011;8450;52.654;10.326;2022-09-24T07:44:29;12.03;;;10.83;;
16673;SDS011;8450;52.654;10.326;2022-09-24T07:46:55;10.77;;;9.87;;
16673;SDS011;8450;52.654;10.326;2022-09-24T07:49:21;11.67;;;10.77;;
16673;SDS011;8450;52.654;10.326;2022-09-24T07:51:47;12.37;;;11.30;;
16673;SDS011;8450;52.654;10.326;2022-09-24T07:54:13;12.17;;;11.13;;
16673;SDS011;8450;52.654;10.326;2022-09-24T07:56:39;12.53;;;11.43;;
16673;SDS011;8450;52.654;10.326;2022-09-24T07:59:04;13.00;;;11.87;;
16673;SDS011;8450;52.654;10.326;2022-09-24T08:01:31;13.57;;;12.27;;
16673;SDS011;8450;52.654;10.326;2022-09-24T08:03:57;13.03;;;11.83;;
16673;SDS011;8450;52.654;10.326;2022-09-24T08:06:28;13.87;;;12.57;;
16673;SDS011;8450;52.654;10.326;2022-09-24T08:08:57;11.93;;;10.93;;
16673;SDS011;8450;52.654;10.326;2022-09-24T08:11:23;12.10;;;11.10;;
16673;SDS011;8450;52.654;10.326;2022-09-24T08:13:49;12.23;;;11.03;;
16673;SDS011;8450;52.654;10.326;2022-09-24T08:16:15;11.93;;;10.90;;
16673;SDS011;8450;52.654;10.326;2022-09-24T08:18:41;12.77;;;11.67;;
16673;SDS011;8450;52.654;10.326;2022-09-24T08:21:08;12.97;;;11.80;;
16673;SDS011;8450;52.654;10.326;2022-09-24T08:23:35;12.17;;;11.17;;
16673;SDS011;8450;52.654;10.326;2022-09-24T08:26:05;11.40;;;10.33;;
16673;SDS011;8450;52.654;10.326;2022-09-24T08:28:31;11.27;;;10.27;;
16673;SDS011;8450;52.654;10.326;2022-09-24T08:30:58;12.00;;;10.93;;
16673;SDS011;8450;52.654;10.326;2022-09-24T08:33:25;10.80;;;9.90;;
16673;SDS011;8450;52.654;10.326;2022-09-24T08:35:51;11.67;;;10.77;;
16673;SDS011;8450;52.654;10.326;2022-09-24T08:38:17;13.03;;;11.93;;
16673;SDS011;8450;52.654;10.326;2022-09-24T08:40:47;11.50;;;10.60;;
16673;SDS011;8450;52.654;10.326;2022-09-24T08:46:19;13.23;;;12.07;;
16673;SDS011;8450;52.654;10.326;2022-09-24T08:49:08;13.63;;;12.20;;
16673;SDS011;8450;52.654;10.326;2022-09-24T08:51:42;12.20;;;11.20;;
16673;SDS011;8450;52.654;10.326;2022-09-24T08:54:17;11.63;;;10.60;;
16673;SDS011;8450;52.654;10.326;2022-09-24T08:56:48;12.27;;;11.17;;
16673;SDS011;8450;52.654;10.326;2022-09-24T08:59:32;12.40;;;11.23;;
16673;SDS011;8450;52.654;10.326;2022-09-24T09:02:14;11.73;;;10.63;;
16673;SDS011;8450;52.654;10.326;2022-09-24T09:05:00;12.77;;;11.67;;
16673;SDS011;8450;52.654;10.326;2022-09-24T09:10:24;11.90;;;10.80;;
16673;SDS011;8450;52.654;10.326;2022-09-24T09:15:58;10.27;;;9.37;;
16673;SDS011;8450;52.654;10.326;2022-09-24T09:18:31;11.30;;;10.30;;
16673;SDS011;8450;52.654;10.326;2022-09-24T09:21:07;11.20;;;10.17;;
16673;SDS011;8450;52.654;10.326;2022-09-24T09:23:42;11.73;;;10.63;;
16673;SDS011;8450;52.654;10.326;2022-09-24T09:26:14;11.73;;;10.53;;
16673;SDS011;8450;52.654;10.326;2022-09-24T09:28:43;11.70;;;10.70;;
16673;SDS011;8450;52.654;10.326;2022-09-24T09:31:13;9.23;;;8.43;;
16673;SDS011;8450;52.654;10.326;2022-09-24T09:34:03;9.67;;;8.87;;
16673;SDS011;8450;52.654;10.326;2022-09-24T09:37:03;11.80;;;10.80;;
16673;SDS011;8450;52.654;10.326;2022-09-24T09:39:44;11.27;;;10.17;;
16673;SDS011;8450;52.654;10.326;2022-09-24T09:42:36;11.37;;;10.27;;
16673;SDS011;8450;52.654;10.326;2022-09-24T09:48:02;12.77;;;11.67;;
16673;SDS011;8450;52.654;10.326;2022-09-24T09:50:29;12.67;;;11.67;;
16673;SDS011;8450;52.654;10.326;2022-09-24T09:53:19;12.63;;;11.53;;
16673;SDS011;8450;52.654;10.326;2022-09-24T09:55:51;11.67;;;10.67;;
16673;SDS011;8450;52.654;10.326;2022-09-24T09:58:35;10.27;;;9.37;;
16673;SDS011;8450;52.654;10.326;2022-09-24T10:01:11;11.23;;;10.10;;
16673;SDS011;8450;52.654;10.326;2022-09-24T10:06:11;11.27;;;10.37;;
16673;SDS011;8450;52.654;10.326;2022-09-24T10:08:37;12.07;;;11.00;;
16673;SDS011;8450;52.654;10.326;2022-09-24T10:11:04;13.83;;;11.37;;
16673;SDS011;8450;52.654;10.326;2022-09-24T10:13:31;13.00;;;11.87;;
16673;SDS011;8450;52.654;10.326;2022-09-24T10:15:58;12.23;;;11.13;;
16673;SDS011;8450;52.654;10.326;2022-09-24T10:18:29;11.33;;;10.27;;
16673;SDS011;8450;52.654;10.326;2022-09-24T10:21:02;11.33;;;10.43;;
16673;SDS011;8450;52.654;10.326;2022-09-24T10:23:43;11.37;;;10.13;;
16673;SDS011;8450;52.654;10.326;2022-09-24T10:26:12;10.67;;;9.67;;
16673;SDS011;8450;52.654;10.326;2022-09-24T10:28:48;10.70;;;9.70;;
16673;SDS011;8450;52.654;10.326;2022-09-24T10:31:34;10.20;;;9.20;;
16673;SDS011;8450;52.654;10.326;2022-09-24T10:34:03;10.43;;;9.43;;
16673;SDS011;8450;52.654;10.326;2022-09-24T10:36:48;9.93;;;9.03;;
16673;SDS011;8450;52.654;10.326;2022-09-24T10:39:22;10.20;;;9.20;;
16673;SDS011;8450;52.654;10.326;2022-09-24T10:41:48;10.23;;;9.33;;
16673;SDS011;8450;52.654;10.326;2022-09-24T10:44:20;10.67;;;9.57;;
16673;SDS011;8450;52.654;10.326;2022-09-24T11:15:05;9.93;;;8.93;;
16673;SDS011;8450;52.654;10.326;2022-09-24T11:20:38;9.57;;;8.80;;
16673;SDS011;8450;52.654;10.326;2022-09-24T11:23:55;9.13;;;8.33;;
16673;SDS011;8450;52.654;10.326;2022-09-24T11:26:17;9.70;;;8.70;;
16673;SDS011;8450;52.654;10.326;2022-09-24T11:29:08;9.30;;;8.50;;
16673;SDS011;8450;52.654;10.326;2022-09-24T11:34:16;10.07;;;8.97;;
16673;SDS011;8450;52.654;10.326;2022-09-24T11:42:06;9.53;;;8.77;;
16673;SDS011;8450;52.654;10.326;2022-09-24T11:44:51;9.90;;;9.03;;
16673;SDS011;8450;52.654;10.326;2022-09-24T11:47:47;10.03;;;9.13;;
16673;SDS011;8450;52.654;10.326;2022-09-24T11:50:57;9.93;;;9.03;;
16673;SDS011;8450;52.654;10.326;2022-09-24T11:53:45;10.37;;;9.47;;
16673;SDS011;8450;52.654;10.326;2022-09-24T11:56:27;10.20;;;9.30;;
16673;SDS011;8450;52.654;10.326;2022-09-24T11:59:11;9.53;;;8.53;;
16673;SDS011;8450;52.654;10.326;2022-09-24T12:01:49;8.20;;;7.50;;
16673;SDS011;8450;52.654;10.326;2022-09-24T12:07:25;9.27;;;8.37;;
16673;SDS011;8450;52.654;10.326;2022-09-24T12:13:11;9.70;;;8.90;;
16673;SDS011;8450;52.654;10.326;2022-09-24T12:15:45;9.93;;;9.07;;
16673;SDS011;8450;52.654;10.326;2022-09-24T12:18:17;10.10;;;9.27;;
16673;SDS011;8450;52.654;10.326;2022-09-24T12:20:56;8.97;;;8.03;;
16673;SDS011;8450;52.654;10.326;2022-09-24T12:23:28;10.27;;;9.27;;
16673;SDS011;8450;52.654;10.326;2022-09-24T12:25:57;10.67;;;9.67;;
16673;SDS011;8450;52.654;10.326;2022-09-24T12:28:25;10.67;;;9.57;;
16673;SDS011;8450;52.654;10.326;2022-09-24T12:31:21;10.63;;;9.27;;
16673;SDS011;8450;52.654;10.326;2022-09-24T12:34:30;10.30;;;9.30;;
16673;SDS011;8450;52.654;10.326;2022-09-24T12:37:31;13.43;;;10.43;;
16673;SDS011;8450;52.654;10.326;2022-09-24T12:42:50;11.93;;;9.40;;
16673;SDS011;8450;52.654;10.326;2022-09-24T12:45:21;11.10;;;9.90;;
16673;SDS011;8450;52.654;10.326;2022-09-24T12:47:49;12.23;;;10.33;;
16673;SDS011;8450;52.654;10.326;2022-09-24T12:50:30;10.47;;;9.60;;
16673;SDS011;8450;52.654;10.326;2022-09-24T12:52:59;10.53;;;9.63;;
16673;SDS011;8450;52.654;10.326;2022-09-24T12:55:29;11.17;;;10.07;;
16673;SDS011;8450;52.654;10.326;2022-09-24T12:57:59;9.30;;;8.40;;
16673;SDS011;8450;52.654;10.326;2022-09-24T13:02:57;8.93;;;8.10;;
16673;SDS011;8450;52.654;10.326;2022-09-24T13:10:32;10.77;;;9.67;;
16673;SDS011;8450;52.654;10.326;2022-09-24T13:13:00;10.13;;;9.23;;
16673;SDS011;8450;52.654;10.326;2022-09-24T13:15:34;10.17;;;9.17;;
16673;SDS011;8450;52.654;10.326;2022-09-24T13:18:23;10.47;;;9.47;;
16673;SDS011;8450;52.654;10.326;2022-09-24T13:20:59;10.80;;;9.90;;
16673;SDS011;8450;52.654;10.326;2022-09-24T13:26:03;11.33;;;10.30;;
16673;SDS011;8450;52.654;10.326;2022-09-24T13:28:31;12.47;;;11.27;;
16673;SDS011;8450;52.654;10.326;2022-09-24T13:34:13;11.57;;;10.57;;
16673;SDS011;8450;52.654;10.326;2022-09-24T13:36:47;12.70;;;11.60;;
16673;SDS011;8450;52.654;10.326;2022-09-24T13:39:23;11.00;;;9.80;;
16673;SDS011;8450;52.654;10.326;2022-09-24T13:41:59;9.70;;;8.87;;
16673;SDS011;8450;52.654;10.326;2022-09-24T13:44:36;9.07;;;8.03;;
16673;SDS011;8450;52.654;10.326;2022-09-24T13:49:35;7.00;;;6.40;;
16673;SDS011;8450;52.654;10.326;2022-09-24T13:52:07;7.03;;;6.37;;
16673;SDS011;8450;52.654;10.326;2022-09-24T13:54:44;7.13;;;6.53;;
16673;SDS011;8450;52.654;10.326;2022-09-24T13:57:22;6.93;;;6.23;;
16673;SDS011;8450;52.654;10.326;2022-09-24T13:59:49;7.20;;;6.60;;
16673;SDS011;8450;52.654;10.326;2022-09-24T14:02:29;6.20;;;5.60;;
16673;SDS011;8450;52.654;10.326;2022-09-24T14:04:59;6.50;;;5.90;;
16673;SDS011;8450;52.654;10.326;2022-09-24T14:07:25;8.70;;;6.37;;
16673;SDS011;8450;52.654;10.326;2022-09-24T14:10:06;7.27;;;6.57;;
16673;SDS011;8450;52.654;10.326;2022-09-24T14:12:37;6.67;;;6.07;;
16673;SDS011;8450;52.654;10.326;2022-09-24T14:15:06;7.23;;;6.63;;
16673;SDS011;8450;52.654;10.326;2022-09-24T14:17:38;7.53;;;6.83;;
16673;SDS011;8450;52.654;10.326;2022-09-24T14:20:04;7.17;;;6.57;;
16673;SDS011;8450;52.654;10.326;2022-09-24T14:22:37;7.50;;;6.80;;
16673;SDS011;8450;52.654;10.326;2022-09-24T14:25:06;7.73;;;7.03;;
16673;SDS011;8450;52.654;10.326;2022-09-24T14:27:39;7.93;;;7.20;;
16673;SDS011;8450;52.654;10.326;2022-09-24T14:30:19;7.20;;;6.50;;
16673;SDS011;8450;52.654;10.326;2022-09-24T14:32:54;7.37;;;6.67;;
16673;SDS011;8450;52.654;10.326;2022-09-24T14:35:29;7.70;;;7.00;;
16673;SDS011;8450;52.654;10.326;2022-09-24T14:37:58;7.60;;;6.90;;
16673;SDS011;8450;52.654;10.326;2022-09-24T14:40:28;6.87;;;6.27;;
16673;SDS011;8450;52.654;10.326;2022-09-24T14:43:02;7.40;;;6.73;;
16673;SDS011;8450;52.654;10.326;2022-09-24T14:45:35;7.10;;;6.50;;
16673;SDS011;8450;52.654;10.326;2022-09-24T14:48:03;7.30;;;6.60;;
16673;SDS011;8450;52.654;10.326;2022-09-24T14:50:40;6.90;;;6.30;;
16673;SDS011;8450;52.654;10.326;2022-09-24T14:55:57;7.80;;;7.00;;
16673;SDS011;8450;52.654;10.326;2022-09-24T15:01:01;8.80;;;8.00;;
16673;SDS011;8450;52.654;10.326;2022-09-24T15:06:18;8.10;;;7.30;;
16673;SDS011;8450;52.654;10.326;2022-09-24T15:08:56;7.83;;;7.13;;
16673;SDS011;8450;52.654;10.326;2022-09-24T15:11:28;7.67;;;6.97;;
16673;SDS011;8450;52.654;10.326;2022-09-24T15:14:02;7.60;;;6.73;;
16673;SDS011;8450;52.654;10.326;2022-09-24T15:16:39;7.63;;;6.93;;
16673;SDS011;8450;52.654;10.326;2022-09-24T15:21:31;8.33;;;7.33;;
16673;SDS011;8450;52.654;10.326;2022-09-24T15:23:59;8.50;;;7.70;;
16673;SDS011;8450;52.654;10.326;2022-09-24T15:26:28;8.00;;;7.30;;
16673;SDS011;8450;52.654;10.326;2022-09-24T15:28:56;8.07;;;7.37;;
16673;SDS011;8450;52.654;10.326;2022-09-24T15:31:23;9.07;;;8.17;;
16673;SDS011;8450;52.654;10.326;2022-09-24T15:33:49;7.87;;;7.17;;
16673;SDS011;8450;52.654;10.326;2022-09-24T15:36:15;8.10;;;7.40;;
